createdAt,value
2022-07-27T00:02:08.660Z,2.83
2022-07-27T00:04:56.103Z,3.17
2022-07-27T00:07:43.571Z,2.92
2022-07-27T00:10:32.307Z,3.38
2022-07-27T00:13:19.897Z,2.60
2022-07-27T00:16:07.951Z,2.97
2022-07-27T00:18:55.179Z,2.88
2022-07-27T00:21:44.772Z,3.40
2022-07-27T00:24:33.225Z,2.83
2022-07-27T00:27:21.873Z,3.00
2022-07-27T00:30:09.885Z,2.90
2022-07-27T00:32:57.567Z,3.13
2022-07-27T00:35:45.087Z,2.75
2022-07-27T00:38:32.081Z,2.90
2022-07-27T00:41:19.439Z,2.90
2022-07-27T00:44:08.209Z,3.45
2022-07-27T00:46:55.987Z,3.20
2022-07-27T00:49:43.163Z,3.13
2022-07-27T00:52:31.343Z,3.20
2022-07-27T00:55:18.669Z,3.20
2022-07-27T00:58:09.891Z,3.17
2022-07-27T01:00:58.651Z,3.03
2022-07-27T01:03:46.205Z,2.92
2022-07-27T01:06:36.459Z,3.30
2022-07-27T01:09:41.424Z,3.22
2022-07-27T01:12:30.658Z,3.80
2022-07-27T01:15:18.961Z,3.30
2022-07-27T01:18:13.413Z,3.22
2022-07-27T01:21:03.101Z,3.13
2022-07-27T01:23:51.964Z,3.50
2022-07-27T01:26:40.313Z,3.20
2022-07-27T01:29:27.809Z,3.78
2022-07-27T01:32:15.225Z,2.97
2022-07-27T01:35:02.667Z,3.17
2022-07-27T01:37:49.739Z,3.40
2022-07-27T01:40:39.832Z,3.22
2022-07-27T01:43:27.163Z,3.28
2022-07-27T01:46:14.722Z,3.10
2022-07-27T01:49:02.091Z,3.10
2022-07-27T01:51:49.511Z,2.83
2022-07-27T01:54:36.682Z,3.03
2022-07-27T01:57:25.354Z,2.55
2022-07-27T02:00:14.216Z,2.88
2022-07-27T02:03:02.168Z,2.85
2022-07-27T02:05:49.395Z,3.00
2022-07-27T02:08:36.604Z,2.47
2022-07-27T02:11:41.342Z,2.83
2022-07-27T02:14:30.321Z,2.63
2022-07-27T02:17:18.821Z,2.83
2022-07-27T02:20:08.053Z,2.70
2022-07-27T02:22:55.459Z,2.58
2022-07-27T02:25:42.780Z,2.50
2022-07-27T02:28:30.095Z,2.60
2022-07-27T02:31:18.737Z,2.10
2022-07-27T02:34:06.078Z,2.10
2022-07-27T02:36:53.169Z,2.10
2022-07-27T02:39:40.321Z,1.90
2022-07-27T02:42:27.649Z,2.03
2022-07-27T02:45:15.660Z,1.63
2022-07-27T02:48:04.857Z,2.03
2022-07-27T02:50:55.956Z,1.75
2022-07-27T02:53:43.491Z,1.70
2022-07-27T02:56:30.885Z,1.60
2022-07-27T02:59:18.507Z,1.42
2022-07-27T03:02:05.612Z,1.65
2022-07-27T03:04:54.282Z,1.60
2022-07-27T03:07:41.436Z,1.80
2022-07-27T03:10:29.086Z,1.50
2022-07-27T03:13:16.409Z,1.42
2022-07-27T03:16:03.570Z,1.30
2022-07-27T03:18:50.680Z,1.60
2022-07-27T03:21:39.232Z,1.58
2022-07-27T03:24:26.784Z,1.30
2022-07-27T03:27:14.312Z,1.35
2022-07-27T03:30:01.634Z,1.42
2022-07-27T03:32:49.404Z,1.30
2022-07-27T03:35:36.817Z,1.33
2022-07-27T03:38:25.565Z,1.20
2022-07-27T03:41:13.084Z,1.20
2022-07-27T03:44:00.519Z,1.33
2022-07-27T03:46:48.059Z,1.20
2022-07-27T03:49:35.561Z,1.25
2022-07-27T03:52:23.465Z,1.02
2022-07-27T03:55:12.454Z,1.00
2022-07-27T03:58:00.176Z,1.13
2022-07-27T04:00:47.548Z,1.20
2022-07-27T04:03:34.617Z,1.15
2022-07-27T04:06:21.819Z,1.20
2022-07-27T04:09:09.242Z,1.20
2022-07-27T04:11:57.605Z,1.10
2022-07-27T04:14:47.102Z,1.10
2022-07-27T04:17:55.448Z,1.20
2022-07-27T04:20:41.338Z,1.02
2022-07-27T04:23:28.745Z,1.30
2022-07-27T04:26:16.855Z,1.20
2022-07-27T04:29:06.956Z,1.10
2022-07-27T04:31:54.470Z,0.95
2022-07-27T04:34:41.915Z,1.13
2022-07-27T04:37:29.045Z,1.08
2022-07-27T04:40:16.271Z,0.88
2022-07-27T04:43:07.687Z,1.20
2022-07-27T04:45:56.913Z,1.00
2022-07-27T04:48:49.162Z,1.08
2022-07-27T04:51:36.961Z,1.00
2022-07-27T04:54:24.220Z,0.95
2022-07-27T04:57:11.742Z,1.05
2022-07-27T04:59:59.302Z,0.98
2022-07-27T05:02:47.630Z,1.02
2022-07-27T05:05:35.082Z,1.25
2022-07-27T05:08:22.897Z,1.40
2022-07-27T05:11:10.073Z,1.15
2022-07-27T05:13:56.943Z,1.10
2022-07-27T05:16:44.365Z,1.08
2022-07-27T05:19:40.657Z,1.10
2022-07-27T05:22:28.350Z,1.08
2022-07-27T05:25:15.707Z,1.10
2022-07-27T05:28:02.995Z,1.20
2022-07-27T05:30:50.478Z,1.13
2022-07-27T05:33:37.974Z,1.17
2022-07-27T05:36:26.906Z,1.10
2022-07-27T05:39:14.173Z,1.05
2022-07-27T05:42:01.798Z,1.00
2022-07-27T05:44:48.740Z,1.30
2022-07-27T05:47:35.807Z,1.02
2022-07-27T05:50:22.998Z,1.00
2022-07-27T05:53:11.633Z,1.30
2022-07-27T05:55:59.784Z,1.15
2022-07-27T05:58:47.236Z,1.10
2022-07-27T06:01:34.375Z,1.00
2022-07-27T06:04:21.465Z,1.30
2022-07-27T06:07:26.135Z,1.23
2022-07-27T06:10:14.804Z,1.25
2022-07-27T06:13:03.579Z,1.08
2022-07-27T06:15:50.634Z,1.40
2022-07-27T06:18:38.063Z,1.30
2022-07-27T06:21:28.071Z,1.23
2022-07-27T06:24:16.115Z,1.27
2022-07-27T06:27:04.980Z,1.30
2022-07-27T06:29:52.265Z,1.17
2022-07-27T06:32:39.397Z,1.38
2022-07-27T06:35:26.623Z,0.93
2022-07-27T06:38:14.650Z,1.38
2022-07-27T06:41:02.434Z,1.30
2022-07-27T06:43:51.164Z,1.23
2022-07-27T06:46:38.268Z,1.45
2022-07-27T06:49:25.512Z,1.50
2022-07-27T06:52:13.158Z,1.20
2022-07-27T06:55:00.369Z,1.17
2022-07-27T06:57:47.943Z,1.10
2022-07-27T07:00:36.738Z,1.23
2022-07-27T07:03:24.495Z,1.42
2022-07-27T07:06:11.802Z,1.30
2022-07-27T07:08:59.016Z,1.13
2022-07-27T07:11:46.333Z,1.52
2022-07-27T07:14:33.437Z,1.20
2022-07-27T07:17:22.013Z,1.27
2022-07-27T07:20:10.846Z,1.70
2022-07-27T07:22:58.582Z,1.30
2022-07-27T07:25:45.960Z,1.48
2022-07-27T07:28:33.291Z,1.30
2022-07-27T07:31:21.139Z,1.10
2022-07-27T07:34:09.734Z,1.23
2022-07-27T07:36:58.187Z,1.20
2022-07-27T07:39:45.919Z,1.13
2022-07-27T07:42:33.142Z,1.23
2022-07-27T07:45:20.579Z,1.40
2022-07-27T07:48:08.416Z,1.30
2022-07-27T07:50:57.356Z,1.30
2022-07-27T07:53:44.534Z,1.23
2022-07-27T07:56:31.613Z,1.10
2022-07-27T07:59:19.382Z,1.40
2022-07-27T08:02:06.954Z,1.20
2022-07-27T08:04:54.800Z,1.40
2022-07-27T08:07:44.403Z,1.80
2022-07-27T08:10:31.514Z,1.00
2022-07-27T08:13:22.311Z,1.40
2022-07-27T08:16:10.131Z,1.20
2022-07-27T08:18:57.279Z,1.10
2022-07-27T08:21:44.685Z,1.33
2022-07-27T08:24:33.507Z,1.02
2022-07-27T08:27:20.965Z,1.30
2022-07-27T08:30:10.515Z,1.30
2022-07-27T08:33:01.799Z,1.33
2022-07-27T08:35:49.244Z,1.38
2022-07-27T08:38:36.711Z,1.33
2022-07-27T08:41:28.022Z,1.45
2022-07-27T08:44:15.949Z,1.35
2022-07-27T08:47:04.149Z,1.10
2022-07-27T08:49:51.355Z,1.33
2022-07-27T08:52:38.732Z,1.40
2022-07-27T08:55:26.160Z,1.38
2022-07-27T08:58:16.563Z,1.35
2022-07-27T09:01:03.732Z,1.20
2022-07-27T09:03:50.899Z,1.48
2022-07-27T09:06:54.078Z,1.40
2022-07-27T09:09:47.299Z,1.58
2022-07-27T09:12:35.594Z,1.75
2022-07-27T09:15:24.367Z,1.55
2022-07-27T09:18:19.872Z,1.60
2022-07-27T09:21:14.110Z,1.45
2022-07-27T09:24:23.555Z,1.58
2022-07-27T09:27:18.116Z,1.60
2022-07-27T09:30:07.776Z,1.60
2022-07-27T09:32:59.818Z,1.45
2022-07-27T09:36:00.076Z,1.75
2022-07-27T09:39:01.680Z,1.70
2022-07-27T09:41:52.468Z,1.45
2022-07-27T09:44:44.329Z,1.60
2022-07-27T09:47:33.345Z,1.75
2022-07-27T09:50:25.354Z,1.77
2022-07-27T09:53:41.626Z,1.85
2022-07-27T09:56:31.366Z,1.80
2022-07-27T09:59:20.271Z,1.75
2022-07-27T10:02:08.071Z,1.92
2022-07-27T10:04:56.600Z,1.77
2022-07-27T10:07:45.297Z,1.55
2022-07-27T10:10:32.622Z,1.50
2022-07-27T10:13:20.077Z,1.90
2022-07-27T10:16:09.530Z,1.77
2022-07-27T10:19:08.608Z,1.70
2022-07-27T10:21:56.816Z,2.28
2022-07-27T10:24:51.181Z,1.58
2022-07-27T10:27:40.291Z,1.33
2022-07-27T10:30:29.601Z,1.58
2022-07-27T10:33:18.254Z,1.70
2022-07-27T10:36:05.569Z,1.65
2022-07-27T10:38:56.980Z,1.77
2022-07-27T10:41:45.645Z,2.22
2022-07-27T10:44:32.847Z,1.98
2022-07-27T10:47:35.460Z,1.70
2022-07-27T10:50:32.446Z,1.67
2022-07-27T10:53:49.185Z,1.98
2022-07-27T10:56:49.437Z,1.88
2022-07-27T11:00:10.185Z,1.75
2022-07-27T11:02:59.916Z,1.70
2022-07-27T11:06:11.671Z,1.92
2022-07-27T11:09:59.963Z,1.85
2022-07-27T11:12:14.907Z,2.00
2022-07-27T11:15:03.000Z,2.05
2022-07-27T11:18:03.459Z,1.85
2022-07-27T11:20:52.133Z,1.80
2022-07-27T11:23:50.933Z,2.08
2022-07-27T11:26:42.144Z,1.90
2022-07-27T11:29:39.987Z,1.95
2022-07-27T11:32:37.263Z,1.80
2022-07-27T11:35:24.919Z,1.90
2022-07-27T11:38:12.284Z,1.63
2022-07-27T11:41:16.994Z,2.20
2022-07-27T11:44:09.790Z,1.92
2022-07-27T11:47:02.118Z,2.33
2022-07-27T11:49:49.551Z,2.10
2022-07-27T11:52:36.882Z,1.95
2022-07-27T11:55:24.466Z,2.10
2022-07-27T11:58:12.767Z,1.90
2022-07-27T12:00:59.929Z,1.80
2022-07-27T12:03:48.510Z,1.85
2022-07-27T12:06:37.281Z,2.40
2022-07-27T12:09:25.127Z,1.73
2022-07-27T12:12:17.340Z,2.05
2022-07-27T12:15:44.103Z,1.80
2022-07-27T12:18:23.427Z,2.50
2022-07-27T12:21:19.973Z,2.08
2022-07-27T12:24:08.310Z,1.95
2022-07-27T12:27:13.990Z,1.77
2022-07-27T12:30:12.495Z,2.15
2022-07-27T12:33:00.449Z,2.20
2022-07-27T12:35:48.007Z,2.20
2022-07-27T12:38:44.553Z,2.38
2022-07-27T12:41:37.613Z,2.10
2022-07-27T12:44:34.346Z,1.92
2022-07-27T12:47:40.418Z,2.15
2022-07-27T12:50:29.786Z,2.22
2022-07-27T12:53:18.465Z,2.40
2022-07-27T12:56:10.363Z,2.15
2022-07-27T12:59:01.460Z,2.28
2022-07-27T13:01:50.729Z,2.28
2022-07-27T13:04:38.419Z,2.55
2022-07-27T13:07:26.050Z,2.20
2022-07-27T13:10:14.749Z,2.42
2022-07-27T13:13:04.436Z,1.90
2022-07-27T13:15:51.641Z,1.92
2022-07-27T13:18:38.988Z,1.90
2022-07-27T13:21:26.241Z,1.83
2022-07-27T13:24:15.142Z,1.70
2022-07-27T13:27:02.321Z,1.92
2022-07-27T13:29:50.944Z,2.08
2022-07-27T13:32:38.815Z,2.10
2022-07-27T13:35:26.133Z,2.20
2022-07-27T13:38:16.622Z,2.58
2022-07-27T13:41:04.647Z,1.65
2022-07-27T13:43:52.058Z,2.10
2022-07-27T13:46:40.569Z,1.70
2022-07-27T13:49:28.209Z,1.90
2022-07-27T13:52:15.610Z,1.52
2022-07-27T13:55:03.093Z,1.85
2022-07-27T13:57:54.961Z,2.10
2022-07-27T14:00:42.358Z,1.60
2022-07-27T14:03:31.044Z,1.75
2022-07-27T14:06:18.851Z,1.88
2022-07-27T14:09:12.611Z,1.77
2022-07-27T14:12:04.995Z,1.75
2022-07-27T14:14:52.077Z,1.90
2022-07-27T14:17:39.185Z,1.80
2022-07-27T14:20:28.098Z,2.00
2022-07-27T14:23:15.804Z,1.90
2022-07-27T14:26:06.167Z,1.70
2022-07-27T14:28:54.727Z,2.00
2022-07-27T14:31:42.070Z,1.80
2022-07-27T14:34:29.417Z,2.20
2022-07-27T14:37:17.938Z,1.70
2022-07-27T14:40:08.153Z,1.83
2022-07-27T14:42:55.587Z,1.77
2022-07-27T14:45:45.299Z,1.83
2022-07-27T14:49:05.579Z,1.90
2022-07-27T14:51:40.907Z,1.70
2022-07-27T14:54:37.439Z,1.80
2022-07-27T14:57:25.017Z,1.70
2022-07-27T15:00:16.227Z,1.77
2022-07-27T15:03:04.652Z,1.98
2022-07-27T15:05:52.051Z,1.90
2022-07-27T15:08:39.238Z,1.60
2022-07-27T15:11:30.897Z,1.60
2022-07-27T15:14:18.929Z,1.90
2022-07-27T15:17:09.090Z,1.90
2022-07-27T15:19:56.378Z,1.73
2022-07-27T15:22:43.689Z,1.65
2022-07-27T15:25:30.959Z,1.55
2022-07-27T15:28:19.876Z,1.60
2022-07-27T15:31:07.606Z,1.90
2022-07-27T15:33:54.970Z,2.15
2022-07-27T15:36:50.084Z,1.50
2022-07-27T15:39:41.821Z,1.70
2022-07-27T15:42:29.003Z,1.77
2022-07-27T15:45:18.032Z,1.77
2022-07-27T15:48:05.611Z,1.60
2022-07-27T15:50:54.777Z,1.67
2022-07-27T15:53:41.876Z,1.70
2022-07-27T15:56:28.827Z,1.60
2022-07-27T15:59:16.373Z,1.73
2022-07-27T16:02:05.236Z,1.60
2022-07-27T16:04:52.809Z,1.30
2022-07-27T16:07:40.678Z,1.77
2022-07-27T16:10:29.986Z,1.55
2022-07-27T16:13:17.103Z,1.50
2022-07-27T16:16:25.034Z,1.88
2022-07-27T16:19:14.319Z,1.40
2022-07-27T16:22:01.763Z,1.55
2022-07-27T16:24:48.781Z,1.60
2022-07-27T16:27:36.087Z,1.90
2022-07-27T16:30:23.612Z,1.52
2022-07-27T16:33:11.136Z,1.40
2022-07-27T16:35:59.724Z,1.60
2022-07-27T16:38:50.053Z,1.40
2022-07-27T16:41:37.978Z,1.55
2022-07-27T16:44:25.462Z,1.85
2022-07-27T16:47:12.932Z,1.63
2022-07-27T16:50:00.078Z,1.70
2022-07-27T16:52:48.745Z,1.33
2022-07-27T16:55:36.527Z,1.40
2022-07-27T16:58:23.969Z,1.55
2022-07-27T17:01:21.740Z,1.60
2022-07-27T17:04:13.734Z,1.40
2022-07-27T17:07:00.812Z,1.60
2022-07-27T17:09:49.489Z,1.63
2022-07-27T17:12:38.768Z,1.40
2022-07-27T17:15:26.786Z,1.60
2022-07-27T17:18:14.039Z,1.30
2022-07-27T17:21:02.022Z,1.52
2022-07-27T17:23:49.149Z,1.60
2022-07-27T17:26:38.088Z,1.55
2022-07-27T17:29:25.653Z,1.50
2022-07-27T17:32:13.131Z,1.50
2022-07-27T17:35:01.427Z,1.50
2022-07-27T17:38:05.722Z,1.58
2022-07-27T17:40:54.437Z,1.42
2022-07-27T17:43:43.235Z,1.80
2022-07-27T17:46:32.336Z,1.60
2022-07-27T17:49:22.874Z,1.70
2022-07-27T17:52:10.355Z,1.80
2022-07-27T17:54:57.776Z,1.60
2022-07-27T17:57:45.598Z,1.70
2022-07-27T18:00:34.169Z,1.30
2022-07-27T18:03:21.936Z,1.33
2022-07-27T18:06:09.409Z,1.45
2022-07-27T18:08:56.550Z,1.50
2022-07-27T18:11:43.800Z,1.63
2022-07-27T18:14:31.310Z,1.30
2022-07-27T18:17:20.210Z,1.52
2022-07-27T18:20:10.535Z,1.42
2022-07-27T18:22:57.669Z,1.60
2022-07-27T18:25:47.284Z,1.55
2022-07-27T18:28:39.431Z,1.67
2022-07-27T18:31:27.650Z,1.27
2022-07-27T18:34:17.297Z,1.40
2022-07-27T18:37:04.810Z,1.58
2022-07-27T18:39:51.953Z,1.55
2022-07-27T18:42:40.258Z,1.50
2022-07-27T18:45:34.315Z,1.40
2022-07-27T18:48:22.210Z,1.40
2022-07-27T18:51:10.618Z,1.40
2022-07-27T18:53:58.421Z,1.70
2022-07-27T18:56:45.618Z,1.70
2022-07-27T18:59:35.583Z,1.40
2022-07-27T19:02:28.461Z,1.55
2022-07-27T19:05:18.222Z,1.55
2022-07-27T19:08:20.121Z,1.30
2022-07-27T19:11:07.614Z,1.38
2022-07-27T19:13:56.550Z,1.60
2022-07-27T19:16:43.755Z,1.52
2022-07-27T19:19:31.130Z,1.60
2022-07-27T19:22:20.266Z,1.58
2022-07-27T19:25:10.193Z,1.50
2022-07-27T19:27:57.696Z,1.73
2022-07-27T19:30:44.977Z,1.60
2022-07-27T19:33:32.391Z,1.50
2022-07-27T19:36:20.329Z,1.60
2022-07-27T19:39:08.342Z,1.40
2022-07-27T19:41:57.323Z,1.60
2022-07-27T19:44:45.485Z,1.55
2022-07-27T19:47:33.559Z,1.40
2022-07-27T19:50:21.108Z,1.67
2022-07-27T19:53:08.661Z,1.40
2022-07-27T19:55:56.251Z,1.58
2022-07-27T19:58:45.268Z,1.20
2022-07-27T20:01:32.552Z,1.42
2022-07-27T20:04:20.175Z,1.60
2022-07-27T20:07:09.987Z,1.67
2022-07-27T20:09:57.111Z,1.50
2022-07-27T20:12:44.430Z,1.40
2022-07-27T20:15:33.625Z,1.35
2022-07-27T20:18:20.839Z,1.60
2022-07-27T20:21:22.693Z,1.60
2022-07-27T20:24:11.137Z,1.80
2022-07-27T20:26:59.005Z,1.70
2022-07-27T20:29:46.454Z,2.20
2022-07-27T20:32:35.201Z,1.70
2022-07-27T20:35:22.798Z,1.60
2022-07-27T20:38:09.977Z,1.63
2022-07-27T20:40:59.322Z,1.80
2022-07-27T20:43:47.414Z,1.60
2022-07-27T20:46:34.902Z,2.00
2022-07-27T20:49:24.933Z,1.70
2022-07-27T20:52:12.165Z,1.60
2022-07-27T20:54:59.247Z,1.50
2022-07-27T20:57:46.519Z,1.30
2022-07-27T21:00:33.555Z,1.70
2022-07-27T21:03:21.056Z,1.65
2022-07-27T21:06:09.967Z,1.67
2022-07-27T21:08:57.447Z,1.70
2022-07-27T21:11:45.031Z,1.73
2022-07-27T21:14:32.519Z,1.40
2022-07-27T21:17:19.896Z,1.70
2022-07-27T21:20:09.180Z,1.50
2022-07-27T21:23:15.304Z,1.30
2022-07-27T21:26:02.474Z,1.30
2022-07-27T21:28:49.977Z,1.45
2022-07-27T21:31:37.855Z,1.50
2022-07-27T21:34:25.174Z,1.10
2022-07-27T21:37:12.615Z,1.23
2022-07-27T21:40:01.497Z,1.25
2022-07-27T21:42:48.973Z,1.15
2022-07-27T21:45:36.114Z,1.00
2022-07-27T21:48:23.216Z,1.20
2022-07-27T21:51:10.836Z,1.33
2022-07-27T21:53:58.171Z,1.10
2022-07-27T21:56:50.628Z,1.20
2022-07-27T21:59:37.970Z,1.50
2022-07-27T22:02:28.209Z,1.20
2022-07-27T22:05:16.110Z,1.00
2022-07-27T22:08:03.563Z,1.50
2022-07-27T22:10:50.706Z,1.10
2022-07-27T22:13:39.422Z,1.05
2022-07-27T22:16:27.069Z,1.33
2022-07-27T22:19:14.290Z,1.27
2022-07-27T22:22:01.768Z,1.10
2022-07-27T22:24:49.304Z,1.25
2022-07-27T22:27:36.685Z,1.23
2022-07-27T22:30:25.405Z,1.00
2022-07-27T22:33:12.451Z,1.08
2022-07-27T22:35:59.774Z,1.30
2022-07-27T22:38:47.061Z,1.20
2022-07-27T22:41:34.232Z,1.10
2022-07-27T22:44:21.821Z,1.05
2022-07-27T22:47:11.218Z,1.23
2022-07-27T22:49:58.299Z,1.20
2022-07-27T22:52:45.641Z,1.00
2022-07-27T22:55:33.096Z,1.38
2022-07-27T22:58:20.501Z,1.25
2022-07-27T23:01:07.835Z,1.20
2022-07-27T23:04:18.595Z,1.17
2022-07-27T23:07:06.077Z,1.17
2022-07-27T23:09:53.261Z,1.27
2022-07-27T23:12:44.568Z,1.05
2022-07-27T23:15:32.233Z,1.23
2022-07-27T23:18:20.762Z,1.13
2022-07-27T23:21:09.330Z,0.95
2022-07-27T23:23:56.653Z,1.20
2022-07-27T23:26:45.902Z,1.30
2022-07-27T23:29:33.107Z,1.30
2022-07-27T23:32:20.426Z,1.10
2022-07-27T23:35:08.839Z,1.40
2022-07-27T23:37:57.608Z,1.20
2022-07-27T23:40:44.914Z,1.10
2022-07-27T23:43:31.945Z,1.10
2022-07-27T23:46:19.489Z,1.05
2022-07-27T23:49:06.762Z,1.30
2022-07-27T23:51:53.784Z,1.02
2022-07-27T23:54:42.413Z,1.08
2022-07-27T23:57:30.215Z,1.30
